sensor_id;sensor_type;location;lat;lon;timestamp;temperature;humidity
3818;DHT22;1924;48.078;11.516;2023-12-28T00:00:06;5.90;88.80
3818;DHT22;1924;48.078;11.516;2023-12-28T00:02:33;5.90;90.50
3818;DHT22;1924;48.078;11.516;2023-12-28T00:05:01;5.90;90.10
3818;DHT22;1924;48.078;11.516;2023-12-28T00:07:28;5.80;89.00
3818;DHT22;1924;48.078;11.516;2023-12-28T00:09:54;5.80;89.50
3818;DHT22;1924;48.078;11.516;2023-12-28T00:12:21;5.70;90.10
3818;DHT22;1924;48.078;11.516;2023-12-28T00:14:48;5.60;91.10
3818;DHT22;1924;48.078;11.516;2023-12-28T00:17:15;5.40;90.70
3818;DHT22;1924;48.078;11.516;2023-12-28T00:19:41;5.30;91.10
3818;DHT22;1924;48.078;11.516;2023-12-28T00:22:09;5.30;90.90
3818;DHT22;1924;48.078;11.516;2023-12-28T00:24:38;5.30;90.80
3818;DHT22;1924;48.078;11.516;2023-12-28T00:27:05;5.20;91.60
3818;DHT22;1924;48.078;11.516;2023-12-28T00:29:32;5.20;92.00
3818;DHT22;1924;48.078;11.516;2023-12-28T00:32:00;5.00;92.10
3818;DHT22;1924;48.078;11.516;2023-12-28T00:34:26;4.90;93.30
3818;DHT22;1924;48.078;11.516;2023-12-28T00:36:53;4.90;93.00
3818;DHT22;1924;48.078;11.516;2023-12-28T00:39:21;4.90;92.70
3818;DHT22;1924;48.078;11.516;2023-12-28T00:41:48;5.00;92.90
3818;DHT22;1924;48.078;11.516;2023-12-28T00:44:14;4.90;92.50
3818;DHT22;1924;48.078;11.516;2023-12-28T00:46:41;4.90;92.80
3818;DHT22;1924;48.078;11.516;2023-12-28T00:49:08;4.80;92.50
3818;DHT22;1924;48.078;11.516;2023-12-28T00:51:35;4.70;92.90
3818;DHT22;1924;48.078;11.516;2023-12-28T00:54:02;4.60;92.60
3818;DHT22;1924;48.078;11.516;2023-12-28T00:56:30;4.60;93.10
3818;DHT22;1924;48.078;11.516;2023-12-28T00:58:57;4.50;92.70
3818;DHT22;1924;48.078;11.516;2023-12-28T01:01:24;4.60;93.10
3818;DHT22;1924;48.078;11.516;2023-12-28T01:03:52;4.50;93.20
3818;DHT22;1924;48.078;11.516;2023-12-28T01:06:19;4.50;93.00
3818;DHT22;1924;48.078;11.516;2023-12-28T01:08:45;4.50;93.30
3818;DHT22;1924;48.078;11.516;2023-12-28T01:11:12;4.40;93.20
3818;DHT22;1924;48.078;11.516;2023-12-28T01:13:40;4.30;93.40
3818;DHT22;1924;48.078;11.516;2023-12-28T01:16:07;4.40;93.20
3818;DHT22;1924;48.078;11.516;2023-12-28T01:18:34;4.30;93.20
3818;DHT22;1924;48.078;11.516;2023-12-28T01:21:00;4.20;93.50
3818;DHT22;1924;48.078;11.516;2023-12-28T01:23:27;4.20;93.30
3818;DHT22;1924;48.078;11.516;2023-12-28T01:25:55;4.30;93.30
3818;DHT22;1924;48.078;11.516;2023-12-28T01:28:22;4.20;93.20
3818;DHT22;1924;48.078;11.516;2023-12-28T01:30:50;4.20;92.90
3818;DHT22;1924;48.078;11.516;2023-12-28T01:33:17;4.10;93.70
3818;DHT22;1924;48.078;11.516;2023-12-28T01:35:44;4.20;93.80
3818;DHT22;1924;48.078;11.516;2023-12-28T01:38:10;4.10;93.60
3818;DHT22;1924;48.078;11.516;2023-12-28T01:40:37;4.20;93.40
3818;DHT22;1924;48.078;11.516;2023-12-28T01:43:03;4.10;93.50
3818;DHT22;1924;48.078;11.516;2023-12-28T01:45:30;4.10;93.90
3818;DHT22;1924;48.078;11.516;2023-12-28T01:47:59;4.10;93.60
3818;DHT22;1924;48.078;11.516;2023-12-28T01:50:26;4.00;93.90
3818;DHT22;1924;48.078;11.516;2023-12-28T01:52:54;3.90;93.70
3818;DHT22;1924;48.078;11.516;2023-12-28T01:55:22;4.10;93.90
3818;DHT22;1924;48.078;11.516;2023-12-28T01:57:49;4.30;93.50
3818;DHT22;1924;48.078;11.516;2023-12-28T02:00:16;4.50;93.50
3818;DHT22;1924;48.078;11.516;2023-12-28T02:02:43;4.50;93.30
3818;DHT22;1924;48.078;11.516;2023-12-28T02:05:12;4.60;93.30
3818;DHT22;1924;48.078;11.516;2023-12-28T02:07:39;4.80;92.80
3818;DHT22;1924;48.078;11.516;2023-12-28T02:10:06;4.90;92.30
3818;DHT22;1924;48.078;11.516;2023-12-28T02:12:33;5.10;92.10
3818;DHT22;1924;48.078;11.516;2023-12-28T02:15:00;5.20;91.30
3818;DHT22;1924;48.078;11.516;2023-12-28T02:17:32;5.30;90.90
3818;DHT22;1924;48.078;11.516;2023-12-28T02:20:00;5.30;91.60
3818;DHT22;1924;48.078;11.516;2023-12-28T02:22:32;5.30;91.80
3818;DHT22;1924;48.078;11.516;2023-12-28T02:25:04;5.30;92.00
3818;DHT22;1924;48.078;11.516;2023-12-28T02:27:32;5.30;91.80
3818;DHT22;1924;48.078;11.516;2023-12-28T02:29:59;5.30;91.60
3818;DHT22;1924;48.078;11.516;2023-12-28T02:32:42;5.30;92.40
3818;DHT22;1924;48.078;11.516;2023-12-28T02:35:17;5.30;92.40
3818;DHT22;1924;48.078;11.516;2023-12-28T02:37:44;5.30;91.90
3818;DHT22;1924;48.078;11.516;2023-12-28T02:40:15;5.30;92.50
3818;DHT22;1924;48.078;11.516;2023-12-28T02:42:42;5.30;92.50
3818;DHT22;1924;48.078;11.516;2023-12-28T02:45:09;5.30;91.70
3818;DHT22;1924;48.078;11.516;2023-12-28T02:47:37;5.30;92.20
3818;DHT22;1924;48.078;11.516;2023-12-28T02:50:04;5.20;92.70
3818;DHT22;1924;48.078;11.516;2023-12-28T02:52:31;5.10;92.70
3818;DHT22;1924;48.078;11.516;2023-12-28T02:54:57;5.00;92.30
3818;DHT22;1924;48.078;11.516;2023-12-28T02:57:25;5.00;92.50
3818;DHT22;1924;48.078;11.516;2023-12-28T02:59:52;5.00;92.70
3818;DHT22;1924;48.078;11.516;2023-12-28T03:02:19;5.00;92.80
3818;DHT22;1924;48.078;11.516;2023-12-28T03:04:46;4.90;92.40
3818;DHT22;1924;48.078;11.516;2023-12-28T03:07:12;4.80;92.90
3818;DHT22;1924;48.078;11.516;2023-12-28T03:09:39;4.80;93.10
3818;DHT22;1924;48.078;11.516;2023-12-28T03:12:06;4.70;93.20
3818;DHT22;1924;48.078;11.516;2023-12-28T03:14:34;4.70;93.30
3818;DHT22;1924;48.078;11.516;2023-12-28T03:17:01;4.80;92.80
3818;DHT22;1924;48.078;11.516;2023-12-28T03:19:28;4.80;93.00
3818;DHT22;1924;48.078;11.516;2023-12-28T03:21:54;4.80;92.70
3818;DHT22;1924;48.078;11.516;2023-12-28T03:24:21;4.90;92.70
3818;DHT22;1924;48.078;11.516;2023-12-28T03:26:48;4.80;92.90
3818;DHT22;1924;48.078;11.516;2023-12-28T03:29:14;4.60;93.00
3818;DHT22;1924;48.078;11.516;2023-12-28T03:31:43;4.60;93.40
3818;DHT22;1924;48.078;11.516;2023-12-28T03:34:09;4.60;93.50
3818;DHT22;1924;48.078;11.516;2023-12-28T05:01:11;4.80;91.40
3818;DHT22;1924;48.078;11.516;2023-12-28T05:03:37;4.80;91.10
3818;DHT22;1924;48.078;11.516;2023-12-28T05:06:04;4.80;91.10
3818;DHT22;1924;48.078;11.516;2023-12-28T05:08:31;4.90;90.60
3818;DHT22;1924;48.078;11.516;2023-12-28T05:10:58;4.90;91.30
3818;DHT22;1924;48.078;11.516;2023-12-28T05:13:25;4.90;91.30
3818;DHT22;1924;48.078;11.516;2023-12-28T05:15:51;4.90;90.60
3818;DHT22;1924;48.078;11.516;2023-12-28T05:18:19;4.70;91.10
3818;DHT22;1924;48.078;11.516;2023-12-28T05:20:46;4.70;90.40
3818;DHT22;1924;48.078;11.516;2023-12-28T05:23:13;4.70;90.40
3818;DHT22;1924;48.078;11.516;2023-12-28T05:25:39;4.80;90.70
3818;DHT22;1924;48.078;11.516;2023-12-28T05:28:06;4.80;90.60
3818;DHT22;1924;48.078;11.516;2023-12-28T05:30:33;4.80;90.50
3818;DHT22;1924;48.078;11.516;2023-12-28T05:33:00;4.80;89.50
3818;DHT22;1924;48.078;11.516;2023-12-28T05:35:28;4.90;90.70
3818;DHT22;1924;48.078;11.516;2023-12-28T05:37:54;4.90;90.50
3818;DHT22;1924;48.078;11.516;2023-12-28T05:40:21;5.00;90.60
3818;DHT22;1924;48.078;11.516;2023-12-28T05:42:48;5.00;90.70
3818;DHT22;1924;48.078;11.516;2023-12-28T05:45:15;5.10;90.80
3818;DHT22;1924;48.078;11.516;2023-12-28T05:47:41;5.00;90.80
3818;DHT22;1924;48.078;11.516;2023-12-28T05:50:08;5.00;91.40
3818;DHT22;1924;48.078;11.516;2023-12-28T05:52:37;5.00;91.50
3818;DHT22;1924;48.078;11.516;2023-12-28T05:55:04;4.90;91.10
3818;DHT22;1924;48.078;11.516;2023-12-28T05:57:31;4.90;91.10
3818;DHT22;1924;48.078;11.516;2023-12-28T05:59:57;4.90;90.50
3818;DHT22;1924;48.078;11.516;2023-12-28T06:02:24;4.90;90.00
3818;DHT22;1924;48.078;11.516;2023-12-28T06:04:51;4.90;90.60
3818;DHT22;1924;48.078;11.516;2023-12-28T06:07:17;4.80;90.70
3818;DHT22;1924;48.078;11.516;2023-12-28T06:09:45;4.90;90.90
3818;DHT22;1924;48.078;11.516;2023-12-28T06:12:12;4.80;90.50
3818;DHT22;1924;48.078;11.516;2023-12-28T06:14:39;4.80;91.00
3818;DHT22;1924;48.078;11.516;2023-12-28T06:17:06;4.70;91.50
3818;DHT22;1924;48.078;11.516;2023-12-28T06:19:32;4.70;90.60
3818;DHT22;1924;48.078;11.516;2023-12-28T06:21:59;4.70;90.90
3818;DHT22;1924;48.078;11.516;2023-12-28T06:24:26;4.80;90.70
3818;DHT22;1924;48.078;11.516;2023-12-28T06:26:54;4.70;90.50
3818;DHT22;1924;48.078;11.516;2023-12-28T06:29:21;4.70;90.20
3818;DHT22;1924;48.078;11.516;2023-12-28T06:31:48;4.70;90.70
3818;DHT22;1924;48.078;11.516;2023-12-28T06:34:15;4.70;90.10
3818;DHT22;1924;48.078;11.516;2023-12-28T06:36:42;4.70;90.40
3818;DHT22;1924;48.078;11.516;2023-12-28T06:39:09;4.70;90.10
3818;DHT22;1924;48.078;11.516;2023-12-28T06:41:36;4.80;90.10
3818;DHT22;1924;48.078;11.516;2023-12-28T06:44:04;4.80;90.60
3818;DHT22;1924;48.078;11.516;2023-12-28T06:46:31;4.70;90.20
3818;DHT22;1924;48.078;11.516;2023-12-28T06:48:58;4.70;90.40
3818;DHT22;1924;48.078;11.516;2023-12-28T06:51:25;4.70;91.10
3818;DHT22;1924;48.078;11.516;2023-12-28T06:53:52;4.60;90.50
3818;DHT22;1924;48.078;11.516;2023-12-28T06:56:19;4.30;90.80
3818;DHT22;1924;48.078;11.516;2023-12-28T06:58:45;4.20;92.10
3818;DHT22;1924;48.078;11.516;2023-12-28T07:01:13;4.00;92.20
3818;DHT22;1924;48.078;11.516;2023-12-28T07:03:40;3.90;91.70
3818;DHT22;1924;48.078;11.516;2023-12-28T07:06:08;3.90;91.60
3818;DHT22;1924;48.078;11.516;2023-12-28T07:08:34;3.80;91.80
3818;DHT22;1924;48.078;11.516;2023-12-28T07:11:01;3.70;91.90
3818;DHT22;1924;48.078;11.516;2023-12-28T07:13:28;3.80;93.00
3818;DHT22;1924;48.078;11.516;2023-12-28T07:15:55;3.90;92.80
3818;DHT22;1924;48.078;11.516;2023-12-28T07:18:23;4.00;93.10
3818;DHT22;1924;48.078;11.516;2023-12-28T07:20:50;4.10;92.80
3818;DHT22;1924;48.078;11.516;2023-12-28T07:23:17;4.00;92.00
3818;DHT22;1924;48.078;11.516;2023-12-28T07:25:43;4.00;92.60
3818;DHT22;1924;48.078;11.516;2023-12-28T07:28:10;4.10;92.70
3818;DHT22;1924;48.078;11.516;2023-12-28T07:30:37;3.90;92.10
3818;DHT22;1924;48.078;11.516;2023-12-28T07:33:04;3.90;92.80
3818;DHT22;1924;48.078;11.516;2023-12-28T07:35:32;4.00;93.10
3818;DHT22;1924;48.078;11.516;2023-12-28T07:37:59;4.00;92.70
3818;DHT22;1924;48.078;11.516;2023-12-28T07:40:26;4.00;93.00
3818;DHT22;1924;48.078;11.516;2023-12-28T07:42:53;4.00;93.50
3818;DHT22;1924;48.078;11.516;2023-12-28T07:45:19;4.00;93.60
3818;DHT22;1924;48.078;11.516;2023-12-28T07:47:49;4.00;93.60
3818;DHT22;1924;48.078;11.516;2023-12-28T07:50:16;4.10;94.00
3818;DHT22;1924;48.078;11.516;2023-12-28T07:52:45;4.00;93.90
3818;DHT22;1924;48.078;11.516;2023-12-28T07:55:12;4.10;94.00
3818;DHT22;1924;48.078;11.516;2023-12-28T07:57:38;4.10;93.90
3818;DHT22;1924;48.078;11.516;2023-12-28T08:00:06;4.10;93.10
3818;DHT22;1924;48.078;11.516;2023-12-28T08:02:33;4.20;94.30
3818;DHT22;1924;48.078;11.516;2023-12-28T08:05:01;4.30;94.30
3818;DHT22;1924;48.078;11.516;2023-12-28T08:07:28;4.40;93.80
3818;DHT22;1924;48.078;11.516;2023-12-28T08:09:56;4.50;94.10
3818;DHT22;1924;48.078;11.516;2023-12-28T08:12:23;4.60;94.50
3818;DHT22;1924;48.078;11.516;2023-12-28T08:14:52;4.60;94.40
3818;DHT22;1924;48.078;11.516;2023-12-28T08:17:19;4.60;94.90
3818;DHT22;1924;48.078;11.516;2023-12-28T08:19:46;4.70;94.90
3818;DHT22;1924;48.078;11.516;2023-12-28T08:22:13;4.80;94.50
3818;DHT22;1924;48.078;11.516;2023-12-28T08:24:39;4.90;94.60
3818;DHT22;1924;48.078;11.516;2023-12-28T08:27:07;5.10;94.50
3818;DHT22;1924;48.078;11.516;2023-12-28T08:29:34;5.30;93.10
3818;DHT22;1924;48.078;11.516;2023-12-28T08:32:01;5.50;92.50
3818;DHT22;1924;48.078;11.516;2023-12-28T08:34:28;5.60;92.90
3818;DHT22;1924;48.078;11.516;2023-12-28T08:36:55;5.80;92.70
3818;DHT22;1924;48.078;11.516;2023-12-28T08:39:21;5.90;92.80
3818;DHT22;1924;48.078;11.516;2023-12-28T08:41:48;6.00;92.40
3818;DHT22;1924;48.078;11.516;2023-12-28T08:44:17;6.20;91.90
3818;DHT22;1924;48.078;11.516;2023-12-28T08:46:43;6.30;91.80
3818;DHT22;1924;48.078;11.516;2023-12-28T08:49:11;6.50;91.50
3818;DHT22;1924;48.078;11.516;2023-12-28T08:51:38;6.60;91.40
3818;DHT22;1924;48.078;11.516;2023-12-28T08:54:05;6.70;91.80
3818;DHT22;1924;48.078;11.516;2023-12-28T08:56:31;6.90;90.60
3818;DHT22;1924;48.078;11.516;2023-12-28T08:58:58;7.00;90.20
3818;DHT22;1924;48.078;11.516;2023-12-28T09:01:26;7.10;89.00
3818;DHT22;1924;48.078;11.516;2023-12-28T09:03:55;7.20;89.80
3818;DHT22;1924;48.078;11.516;2023-12-28T09:06:22;7.40;88.40
3818;DHT22;1924;48.078;11.516;2023-12-28T09:08:50;7.50;89.00
3818;DHT22;1924;48.078;11.516;2023-12-28T09:11:17;7.70;85.90
3818;DHT22;1924;48.078;11.516;2023-12-28T09:13:44;7.80;84.20
3818;DHT22;1924;48.078;11.516;2023-12-28T09:16:12;7.80;85.80
3818;DHT22;1924;48.078;11.516;2023-12-28T09:18:41;7.90;87.20
3818;DHT22;1924;48.078;11.516;2023-12-28T09:21:08;8.00;85.30
3818;DHT22;1924;48.078;11.516;2023-12-28T09:23:36;8.00;85.10
3818;DHT22;1924;48.078;11.516;2023-12-28T09:26:04;8.00;83.30
3818;DHT22;1924;48.078;11.516;2023-12-28T09:28:31;8.10;82.30
3818;DHT22;1924;48.078;11.516;2023-12-28T09:30:58;8.10;85.50
3818;DHT22;1924;48.078;11.516;2023-12-28T09:33:25;8.10;83.00
3818;DHT22;1924;48.078;11.516;2023-12-28T09:35:53;8.10;81.80
3818;DHT22;1924;48.078;11.516;2023-12-28T09:38:20;8.20;83.20
3818;DHT22;1924;48.078;11.516;2023-12-28T09:40:52;8.20;81.10
3818;DHT22;1924;48.078;11.516;2023-12-28T09:43:22;8.20;85.20
3818;DHT22;1924;48.078;11.516;2023-12-28T09:45:50;8.20;83.50
3818;DHT22;1924;48.078;11.516;2023-12-28T09:48:19;8.30;82.60
3818;DHT22;1924;48.078;11.516;2023-12-28T09:50:49;8.40;82.10
3818;DHT22;1924;48.078;11.516;2023-12-28T09:53:21;8.40;83.90
3818;DHT22;1924;48.078;11.516;2023-12-28T09:55:49;8.50;84.50
3818;DHT22;1924;48.078;11.516;2023-12-28T09:58:18;8.50;84.30
3818;DHT22;1924;48.078;11.516;2023-12-28T10:00:46;8.60;82.40
3818;DHT22;1924;48.078;11.516;2023-12-28T10:03:13;8.60;79.80
3818;DHT22;1924;48.078;11.516;2023-12-28T10:05:40;8.70;81.60
3818;DHT22;1924;48.078;11.516;2023-12-28T10:08:07;8.80;82.70
3818;DHT22;1924;48.078;11.516;2023-12-28T10:10:35;8.80;80.30
3818;DHT22;1924;48.078;11.516;2023-12-28T10:13:02;8.80;81.50
3818;DHT22;1924;48.078;11.516;2023-12-28T10:15:30;8.80;83.20
3818;DHT22;1924;48.078;11.516;2023-12-28T10:17:57;8.90;79.20
3818;DHT22;1924;48.078;11.516;2023-12-28T10:20:26;9.00;78.50
3818;DHT22;1924;48.078;11.516;2023-12-28T10:22:53;9.00;76.70
3818;DHT22;1924;48.078;11.516;2023-12-28T10:25:20;9.00;77.30
3818;DHT22;1924;48.078;11.516;2023-12-28T10:27:51;9.00;78.00
3818;DHT22;1924;48.078;11.516;2023-12-28T10:30:20;9.10;78.70
3818;DHT22;1924;48.078;11.516;2023-12-28T10:32:47;9.10;76.40
3818;DHT22;1924;48.078;11.516;2023-12-28T10:35:14;9.20;78.90
3818;DHT22;1924;48.078;11.516;2023-12-28T10:37:41;9.20;77.50
3818;DHT22;1924;48.078;11.516;2023-12-28T10:40:12;9.30;78.10
3818;DHT22;1924;48.078;11.516;2023-12-28T10:42:48;9.30;78.50
3818;DHT22;1924;48.078;11.516;2023-12-28T10:45:18;9.40;77.60
3818;DHT22;1924;48.078;11.516;2023-12-28T10:47:53;9.40;76.20
3818;DHT22;1924;48.078;11.516;2023-12-28T10:50:21;9.50;77.20
3818;DHT22;1924;48.078;11.516;2023-12-28T10:52:53;9.40;75.90
3818;DHT22;1924;48.078;11.516;2023-12-28T10:55:30;9.50;77.40
3818;DHT22;1924;48.078;11.516;2023-12-28T10:58:11;9.50;77.30
3818;DHT22;1924;48.078;11.516;2023-12-28T11:00:47;9.50;77.20
3818;DHT22;1924;48.078;11.516;2023-12-28T11:03:18;9.50;75.90
3818;DHT22;1924;48.078;11.516;2023-12-28T11:05:49;9.50;76.90
3818;DHT22;1924;48.078;11.516;2023-12-28T11:08:19;9.50;76.10
3818;DHT22;1924;48.078;11.516;2023-12-28T11:10:48;9.60;76.90
3818;DHT22;1924;48.078;11.516;2023-12-28T11:13:18;9.60;77.50
3818;DHT22;1924;48.078;11.516;2023-12-28T11:15:48;9.60;76.70
3818;DHT22;1924;48.078;11.516;2023-12-28T11:18:16;9.50;75.50
3818;DHT22;1924;48.078;11.516;2023-12-28T11:20:44;9.50;74.80
3818;DHT22;1924;48.078;11.516;2023-12-28T11:23:11;9.60;76.40
3818;DHT22;1924;48.078;11.516;2023-12-28T11:25:38;9.60;76.20
3818;DHT22;1924;48.078;11.516;2023-12-28T11:28:09;9.60;76.20
3818;DHT22;1924;48.078;11.516;2023-12-28T11:30:36;9.60;76.80
3818;DHT22;1924;48.078;11.516;2023-12-28T11:33:05;9.60;78.60
3818;DHT22;1924;48.078;11.516;2023-12-28T11:35:34;9.70;78.10
3818;DHT22;1924;48.078;11.516;2023-12-28T11:38:03;9.70;78.30
3818;DHT22;1924;48.078;11.516;2023-12-28T11:40:40;9.80;77.40
3818;DHT22;1924;48.078;11.516;2023-12-28T11:43:15;9.80;77.00
3818;DHT22;1924;48.078;11.516;2023-12-28T11:45:48;9.90;78.40
3818;DHT22;1924;48.078;11.516;2023-12-28T11:48:24;9.90;79.50
3818;DHT22;1924;48.078;11.516;2023-12-28T11:50:54;9.90;81.10
3818;DHT22;1924;48.078;11.516;2023-12-28T11:53:22;9.90;78.00
3818;DHT22;1924;48.078;11.516;2023-12-28T11:55:49;9.90;78.60
3818;DHT22;1924;48.078;11.516;2023-12-28T11:58:16;10.00;75.30
3818;DHT22;1924;48.078;11.516;2023-12-28T12:00:42;10.00;75.50
3818;DHT22;1924;48.078;11.516;2023-12-28T12:03:10;10.00;74.20
3818;DHT22;1924;48.078;11.516;2023-12-28T12:05:38;10.10;73.70
3818;DHT22;1924;48.078;11.516;2023-12-28T12:08:06;10.20;73.40
3818;DHT22;1924;48.078;11.516;2023-12-28T12:10:34;10.20;73.60
3818;DHT22;1924;48.078;11.516;2023-12-28T12:13:00;10.20;75.00
3818;DHT22;1924;48.078;11.516;2023-12-28T12:15:28;10.20;74.50
3818;DHT22;1924;48.078;11.516;2023-12-28T12:17:55;10.20;74.90
3818;DHT22;1924;48.078;11.516;2023-12-28T12:20:22;10.30;74.20
3818;DHT22;1924;48.078;11.516;2023-12-28T12:22:50;10.30;75.50
3818;DHT22;1924;48.078;11.516;2023-12-28T12:25:19;10.30;74.20
3818;DHT22;1924;48.078;11.516;2023-12-28T12:27:46;10.30;74.30
3818;DHT22;1924;48.078;11.516;2023-12-28T12:30:13;10.20;76.20
3818;DHT22;1924;48.078;11.516;2023-12-28T12:32:40;10.20;74.90
3818;DHT22;1924;48.078;11.516;2023-12-28T12:35:09;10.20;74.00
3818;DHT22;1924;48.078;11.516;2023-12-28T12:37:36;10.20;75.90
3818;DHT22;1924;48.078;11.516;2023-12-28T12:40:05;10.20;75.00
3818;DHT22;1924;48.078;11.516;2023-12-28T12:42:32;10.10;74.00
3818;DHT22;1924;48.078;11.516;2023-12-28T12:44:59;10.00;74.20
3818;DHT22;1924;48.078;11.516;2023-12-28T12:47:32;10.10;75.20
3818;DHT22;1924;48.078;11.516;2023-12-28T12:49:59;10.00;74.50
3818;DHT22;1924;48.078;11.516;2023-12-28T12:52:26;10.00;74.50
3818;DHT22;1924;48.078;11.516;2023-12-28T12:54:54;10.00;74.40
3818;DHT22;1924;48.078;11.516;2023-12-28T12:57:23;10.10;75.20
3818;DHT22;1924;48.078;11.516;2023-12-28T12:59:51;10.10;74.70
3818;DHT22;1924;48.078;11.516;2023-12-28T13:02:17;10.00;74.70
3818;DHT22;1924;48.078;11.516;2023-12-28T13:04:44;10.00;75.00
3818;DHT22;1924;48.078;11.516;2023-12-28T13:07:11;10.00;75.30
3818;DHT22;1924;48.078;11.516;2023-12-28T13:09:38;10.00;77.00
3818;DHT22;1924;48.078;11.516;2023-12-28T13:12:06;10.10;76.10
3818;DHT22;1924;48.078;11.516;2023-12-28T13:14:34;10.00;77.10
3818;DHT22;1924;48.078;11.516;2023-12-28T13:17:01;10.00;77.00
3818;DHT22;1924;48.078;11.516;2023-12-28T13:19:28;10.00;77.10
3818;DHT22;1924;48.078;11.516;2023-12-28T13:21:54;10.10;76.30
3818;DHT22;1924;48.078;11.516;2023-12-28T13:24:22;10.10;76.70
3818;DHT22;1924;48.078;11.516;2023-12-28T13:26:48;10.00;77.30
3818;DHT22;1924;48.078;11.516;2023-12-28T13:29:15;10.00;76.40
3818;DHT22;1924;48.078;11.516;2023-12-28T13:31:44;10.10;77.30
3818;DHT22;1924;48.078;11.516;2023-12-28T13:34:15;10.00;77.50
3818;DHT22;1924;48.078;11.516;2023-12-28T13:36:44;10.00;76.60
3818;DHT22;1924;48.078;11.516;2023-12-28T13:39:10;10.00;78.00
3818;DHT22;1924;48.078;11.516;2023-12-28T13:41:40;10.00;76.60
3818;DHT22;1924;48.078;11.516;2023-12-28T13:44:07;10.00;76.30
3818;DHT22;1924;48.078;11.516;2023-12-28T13:46:37;10.00;78.40
3818;DHT22;1924;48.078;11.516;2023-12-28T13:49:05;10.10;77.80
3818;DHT22;1924;48.078;11.516;2023-12-28T13:51:33;10.10;77.90
3818;DHT22;1924;48.078;11.516;2023-12-28T13:53:59;10.00;77.00
3818;DHT22;1924;48.078;11.516;2023-12-28T13:56:26;10.00;76.50
3818;DHT22;1924;48.078;11.516;2023-12-28T13:58:54;9.90;78.70
3818;DHT22;1924;48.078;11.516;2023-12-28T14:01:20;9.90;78.40
3818;DHT22;1924;48.078;11.516;2023-12-28T14:03:47;9.90;78.40
3818;DHT22;1924;48.078;11.516;2023-12-28T14:06:18;9.90;78.40
3818;DHT22;1924;48.078;11.516;2023-12-28T14:08:45;9.90;78.60
3818;DHT22;1924;48.078;11.516;2023-12-28T14:11:12;9.90;78.40
3818;DHT22;1924;48.078;11.516;2023-12-28T14:13:39;9.90;78.80
3818;DHT22;1924;48.078;11.516;2023-12-28T14:16:06;9.90;79.60
3818;DHT22;1924;48.078;11.516;2023-12-28T14:18:34;9.80;79.00
3818;DHT22;1924;48.078;11.516;2023-12-28T14:21:00;9.80;78.30
3818;DHT22;1924;48.078;11.516;2023-12-28T14:23:31;9.80;79.00
3818;DHT22;1924;48.078;11.516;2023-12-28T14:25:58;9.90;78.20
3818;DHT22;1924;48.078;11.516;2023-12-28T14:28:25;9.90;79.90
3818;DHT22;1924;48.078;11.516;2023-12-28T14:30:55;9.90;79.10
3818;DHT22;1924;48.078;11.516;2023-12-28T14:33:23;9.90;78.90
3818;DHT22;1924;48.078;11.516;2023-12-28T14:35:50;9.80;79.60
3818;DHT22;1924;48.078;11.516;2023-12-28T14:38:17;9.80;79.40
3818;DHT22;1924;48.078;11.516;2023-12-28T14:40:45;9.70;80.00
3818;DHT22;1924;48.078;11.516;2023-12-28T14:43:13;9.70;80.00
3818;DHT22;1924;48.078;11.516;2023-12-28T14:45:39;9.70;80.70
3818;DHT22;1924;48.078;11.516;2023-12-28T14:48:07;9.70;79.20
3818;DHT22;1924;48.078;11.516;2023-12-28T14:50:34;9.70;80.70
3818;DHT22;1924;48.078;11.516;2023-12-28T14:53:01;9.70;79.60
3818;DHT22;1924;48.078;11.516;2023-12-28T14:55:28;9.80;78.60
3818;DHT22;1924;48.078;11.516;2023-12-28T14:57:56;9.70;78.60
3818;DHT22;1924;48.078;11.516;2023-12-28T15:00:24;9.70;79.10
3818;DHT22;1924;48.078;11.516;2023-12-28T15:02:51;9.70;78.70
3818;DHT22;1924;48.078;11.516;2023-12-28T15:05:18;9.60;79.10
3818;DHT22;1924;48.078;11.516;2023-12-28T15:07:44;9.60;79.20
3818;DHT22;1924;48.078;11.516;2023-12-28T15:10:14;9.60;80.60
3818;DHT22;1924;48.078;11.516;2023-12-28T15:12:42;9.60;79.80
3818;DHT22;1924;48.078;11.516;2023-12-28T15:15:11;9.50;78.90
3818;DHT22;1924;48.078;11.516;2023-12-28T15:17:38;9.50;79.00
3818;DHT22;1924;48.078;11.516;2023-12-28T15:20:05;9.40;79.50
3818;DHT22;1924;48.078;11.516;2023-12-28T15:22:33;9.40;80.00
3818;DHT22;1924;48.078;11.516;2023-12-28T15:25:00;9.40;79.60
3818;DHT22;1924;48.078;11.516;2023-12-28T15:27:27;9.40;81.90
3818;DHT22;1924;48.078;11.516;2023-12-28T15:29:54;9.40;80.20
3818;DHT22;1924;48.078;11.516;2023-12-28T15:32:23;9.30;80.20
3818;DHT22;1924;48.078;11.516;2023-12-28T15:34:50;9.30;80.60
3818;DHT22;1924;48.078;11.516;2023-12-28T15:37:16;9.30;82.50
3818;DHT22;1924;48.078;11.516;2023-12-28T15:39:44;9.20;82.60
3818;DHT22;1924;48.078;11.516;2023-12-28T15:42:10;9.20;80.90
3818;DHT22;1924;48.078;11.516;2023-12-28T15:44:37;9.20;83.20
3818;DHT22;1924;48.078;11.516;2023-12-28T15:47:04;9.20;83.00
3818;DHT22;1924;48.078;11.516;2023-12-28T15:49:32;9.20;82.60
3818;DHT22;1924;48.078;11.516;2023-12-28T15:51:58;9.20;84.30
3818;DHT22;1924;48.078;11.516;2023-12-28T15:54:25;9.20;83.70
3818;DHT22;1924;48.078;11.516;2023-12-28T15:56:52;9.10;82.40
3818;DHT22;1924;48.078;11.516;2023-12-28T15:59:19;9.10;82.20
3818;DHT22;1924;48.078;11.516;2023-12-28T16:01:46;9.10;81.60
3818;DHT22;1924;48.078;11.516;2023-12-28T16:04:12;9.10;84.80
3818;DHT22;1924;48.078;11.516;2023-12-28T16:06:40;9.00;85.10
3818;DHT22;1924;48.078;11.516;2023-12-28T16:09:07;9.00;85.20
3818;DHT22;1924;48.078;11.516;2023-12-28T16:11:34;9.00;84.00
3818;DHT22;1924;48.078;11.516;2023-12-28T16:14:01;9.00;87.40
3818;DHT22;1924;48.078;11.516;2023-12-28T16:16:28;9.00;85.00
3818;DHT22;1924;48.078;11.516;2023-12-28T16:18:55;8.90;86.00
3818;DHT22;1924;48.078;11.516;2023-12-28T16:21:23;8.90;85.80
3818;DHT22;1924;48.078;11.516;2023-12-28T16:23:52;8.90;89.30
3818;DHT22;1924;48.078;11.516;2023-12-28T16:26:18;8.90;86.70
3818;DHT22;1924;48.078;11.516;2023-12-28T16:28:45;8.90;86.10
3818;DHT22;1924;48.078;11.516;2023-12-28T16:31:12;8.90;88.70
3818;DHT22;1924;48.078;11.516;2023-12-28T16:33:39;8.90;88.90
3818;DHT22;1924;48.078;11.516;2023-12-28T16:36:06;8.90;86.20
3818;DHT22;1924;48.078;11.516;2023-12-28T16:38:33;9.00;86.30
3818;DHT22;1924;48.078;11.516;2023-12-28T16:41:01;8.90;85.50
3818;DHT22;1924;48.078;11.516;2023-12-28T16:43:29;8.90;84.50
3818;DHT22;1924;48.078;11.516;2023-12-28T16:45:56;8.90;85.50
3818;DHT22;1924;48.078;11.516;2023-12-28T16:48:23;9.00;83.90
3818;DHT22;1924;48.078;11.516;2023-12-28T16:50:49;9.00;84.20
3818;DHT22;1924;48.078;11.516;2023-12-28T16:53:16;9.10;82.90
3818;DHT22;1924;48.078;11.516;2023-12-28T16:55:43;9.20;81.60
3818;DHT22;1924;48.078;11.516;2023-12-28T16:58:11;9.20;81.10
3818;DHT22;1924;48.078;11.516;2023-12-28T17:00:38;9.20;82.20
3818;DHT22;1924;48.078;11.516;2023-12-28T17:03:04;9.30;80.80
3818;DHT22;1924;48.078;11.516;2023-12-28T17:05:31;9.20;79.40
3818;DHT22;1924;48.078;11.516;2023-12-28T17:07:58;9.20;78.30
3818;DHT22;1924;48.078;11.516;2023-12-28T17:10:25;9.40;79.60
3818;DHT22;1924;48.078;11.516;2023-12-28T17:12:53;9.40;79.50
3818;DHT22;1924;48.078;11.516;2023-12-28T17:15:22;9.40;80.20
3818;DHT22;1924;48.078;11.516;2023-12-28T17:17:49;9.40;78.90
3818;DHT22;1924;48.078;11.516;2023-12-28T17:20:16;9.50;78.70
3818;DHT22;1924;48.078;11.516;2023-12-28T17:22:45;9.40;79.70
3818;DHT22;1924;48.078;11.516;2023-12-28T17:25:23;9.40;79.20